»·PEaware :: N7GL KPSP-KHND

N7GL :: KPSP-KHND

FLIGHT INFORMATION

Flight Status: Arrived
Operator: Privately registered:
United States
More flights under this callsign
Pilot: Georg L. (13308)
Aircraft: BEECH AIRCRAFT SUPER KING AIR 350
(B350)
More flights by this aircraft type
Origin: KPSP Palm Springs Intl
United States
Destination: KHND Henderson
United States
More flights between these airports :: More routes between these airports
Route: +CATH1 PSP V370 TNP V514 BLD
File this flight plan on PilotEdge
Remarks:
Altitude:
(Current/Filed)
15,000ft
Speed:
(Current/Filed)
292kts
Departed: 31-Aug-20 07:21 AM
Arrived: 31-Aug-20 08:10 AM
Distance/Time
Traveled:
145nm/0:49
Distance/Time
To Go:
Arrived

Flight Plot

Page will automatically refresh every two minutes.


Map Options




Map Legend


Flown Route
Filed Route
Departure Airport
Arrival Airport
Navaid (VOR, NDB)
Fix

Horizontal Profiles

Position Reports

Time Latitude Longitude Heading Altitude Ground
Speed
31-Aug-20 06:46 33.825988 -116.508614 91 431ft 0kts
31-Aug-20 06:47 33.825988 -116.508614 91 431ft 0kts
31-Aug-20 06:48 33.825988 -116.508614 91 431ft 0kts
31-Aug-20 06:49 33.825988 -116.508614 91 431ft 0kts
31-Aug-20 06:50 33.825988 -116.508614 91 431ft 0kts
31-Aug-20 06:51 33.825988 -116.508614 91 431ft 0kts
31-Aug-20 06:52 33.825988 -116.508614 91 431ft 0kts
31-Aug-20 06:53 33.825988 -116.508614 91 431ft 0kts
31-Aug-20 06:54 33.825988 -116.508614 91 431ft 0kts
31-Aug-20 06:55 33.825988 -116.508614 91 431ft 0kts
31-Aug-20 06:56 33.825988 -116.508614 91 431ft 0kts
31-Aug-20 06:57 33.825988 -116.508614 91 431ft 0kts
31-Aug-20 07:06 33.825988 -116.508614 91 431ft 0kts
31-Aug-20 07:07 33.825988 -116.508614 91 431ft 0kts
31-Aug-20 07:08 33.825988 -116.508614 91 431ft 0kts
31-Aug-20 07:09 33.825988 -116.508614 91 431ft 0kts
31-Aug-20 07:10 33.825988 -116.508614 91 431ft 0kts
31-Aug-20 07:11 33.825988 -116.508614 91 431ft 0kts
31-Aug-20 07:12 33.825988 -116.508614 91 431ft 0kts
31-Aug-20 07:13 33.825988 -116.508614 91 431ft 0kts
31-Aug-20 07:14 33.825988 -116.508614 91 431ft 0kts
31-Aug-20 07:15 33.825987 -116.506417 133 431ft 11kts
31-Aug-20 07:16 33.821715 -116.502626 144 431ft 23kts
31-Aug-20 07:17 33.818525 -116.499039 90 431ft 0kts
31-Aug-20 07:18 33.818525 -116.499038 90 431ft 0kts
31-Aug-20 07:19 33.818525 -116.499039 90 431ft 0kts
31-Aug-20 07:20 33.822039 -116.500863 323 431ft 91kts
31-Aug-20 07:21 33.852883 -116.528179 322 2191ft 153kts
31-Aug-20 07:22 33.894159 -116.559431 359 3861ft 184kts
31-Aug-20 07:23 33.913795 -116.520756 122 5286ft 186kts
31-Aug-20 07:24 33.886734 -116.467326 119 6727ft 188kts
31-Aug-20 07:25 33.862217 -116.411408 117 8070ft 190kts
31-Aug-20 07:26 33.848366 -116.352673 60 9267ft 197kts
31-Aug-20 07:27 33.875341 -116.294282 62 10525ft 202kts
31-Aug-20 07:28 33.902621 -116.234101 61 11682ft 207kts
31-Aug-20 07:29 33.930501 -116.172666 61 12841ft 211kts
31-Aug-20 07:30 33.958452 -116.111065 61 14174ft 209kts
31-Aug-20 07:31 33.987023 -116.047925 61 14902ft 234kts
31-Aug-20 07:32 34.020559 -115.973259 61 14894ft 266kts
31-Aug-20 07:33 34.056827 -115.892366 61 14893ft 280kts
31-Aug-20 07:34 34.094252 -115.808787 61 14894ft 286kts
31-Aug-20 07:35 34.143947 -115.735554 41 14908ft 286kts
31-Aug-20 07:36 34.201785 -115.668876 42 14923ft 288kts
31-Aug-20 07:37 34.260014 -115.602891 41 14994ft 286kts
31-Aug-20 07:38 34.318680 -115.537307 36 14985ft 287kts
31-Aug-20 07:39 34.391968 -115.502602 19 14992ft 285kts
31-Aug-20 07:40 34.466191 -115.468172 18 14991ft 287kts
31-Aug-20 07:41 34.541149 -115.435146 18 14991ft 287kts
31-Aug-20 07:42 34.616458 -115.402262 17 14945ft 289kts
31-Aug-20 07:43 34.692052 -115.369239 18 14936ft 287kts
31-Aug-20 07:44 34.766924 -115.336370 18 14928ft 286kts
31-Aug-20 07:45 34.841646 -115.303542 18 14916ft 286kts
31-Aug-20 07:46 34.917027 -115.270347 18 14907ft 287kts
31-Aug-20 07:47 34.992162 -115.237197 18 14903ft 287kts
31-Aug-20 07:48 35.067108 -115.204084 18 14907ft 287kts
31-Aug-20 07:49 35.140404 -115.168220 28 14905ft 287kts
31-Aug-20 07:50 35.207772 -115.115622 32 14893ft 287kts
31-Aug-20 07:51 35.274565 -115.062402 32 14883ft 288kts
31-Aug-20 07:52 35.341910 -115.009009 32 14873ft 288kts
31-Aug-20 07:53 35.408999 -114.955760 32 14662ft 295kts
31-Aug-20 07:54 35.480663 -114.898559 32 13546ft 317kts
31-Aug-20 07:55 35.555400 -114.839221 32 12351ft 316kts
31-Aug-20 07:56 35.627993 -114.781486 32 11141ft 308kts
31-Aug-20 07:57 35.707625 -114.771514 344 9931ft 303kts
31-Aug-20 07:59 35.788998 -114.796828 343 8990ft 298kts
31-Aug-20 08:00 35.867688 -114.822273 338 8991ft 287kts
31-Aug-20 08:01 35.933558 -114.879717 321 7741ft 297kts
31-Aug-20 08:02 35.995439 -114.945652 292 6198ft 284kts
31-Aug-20 08:03 36.012731 -115.032500 281 5986ft 241kts
31-Aug-20 08:04 36.027139 -115.106706 280 5051ft 211kts
31-Aug-20 08:05 36.002839 -115.136860 152 3355ft 178kts
31-Aug-20 08:06 35.968263 -115.152064 260 3412ft 157kts
31-Aug-20 08:07 35.994595 -115.182197 16 3407ft 173kts
31-Aug-20 08:08 36.001344 -115.136615 135 2977ft 134kts
31-Aug-20 08:09 35.972686 -115.135418 180 2442ft 45kts
31-Aug-20 08:10 35.971406 -115.136452 0 2447ft 10kts
31-Aug-20 08:11 35.974437 -115.137289 271 2431ft 6kts
31-Aug-20 08:12 35.974751 -115.137947 0 2428ft 0kts
31-Aug-20 08:13 35.974751 -115.137947 0 2428ft 0kts
31-Aug-20 08:14 35.974751 -115.137947 0 2428ft 0kts
31-Aug-20 08:14 35.974751 -115.137947 0 2428ft 0kts

Navigation Log

Ident Type
Flight plan parsing failed, navigation log unavailable